createdAt,value
2023-01-29T00:00:41.572Z,98.36
2023-01-29T00:01:41.584Z,98.36
2023-01-29T00:02:41.726Z,98.36
2023-01-29T00:03:41.531Z,98.36
2023-01-29T00:04:41.522Z,98.36
2023-01-29T00:05:41.502Z,98.36
2023-01-29T00:06:41.491Z,98.41
2023-01-29T00:07:41.670Z,98.25
2023-01-29T00:08:41.464Z,98.30
2023-01-29T00:09:41.464Z,98.30
2023-01-29T00:10:41.441Z,98.30
2023-01-29T00:11:41.440Z,98.19
2023-01-29T00:12:41.600Z,98.30
2023-01-29T00:13:41.410Z,98.41
2023-01-29T00:14:41.407Z,98.41
2023-01-29T00:15:41.378Z,98.41
2023-01-29T00:16:41.486Z,98.41
2023-01-29T00:17:41.537Z,98.57
2023-01-29T00:18:41.354Z,98.57
2023-01-29T00:19:41.358Z,98.68
2023-01-29T00:20:41.368Z,98.68
2023-01-29T00:21:41.319Z,98.79
2023-01-29T00:22:41.311Z,98.89
2023-01-29T00:23:41.277Z,98.89
2023-01-29T00:24:41.277Z,98.89
2023-01-29T00:25:41.286Z,98.89
2023-01-29T00:26:41.255Z,98.79
2023-01-29T00:27:41.236Z,98.79
2023-01-29T00:28:41.238Z,98.79
2023-01-29T00:29:41.218Z,98.89
2023-01-29T00:30:41.226Z,98.79
2023-01-29T00:31:41.364Z,98.79
2023-01-29T00:32:41.185Z,98.79
2023-01-29T00:33:41.165Z,98.89
2023-01-29T00:34:41.155Z,98.79
2023-01-29T00:35:41.170Z,98.89
2023-01-29T00:36:41.167Z,98.89
2023-01-29T00:37:41.302Z,98.89
2023-01-29T00:38:41.103Z,98.79
2023-01-29T00:39:47.724Z,98.79
2023-01-29T00:40:42.082Z,98.68
2023-01-29T00:41:41.250Z,98.68
2023-01-29T00:42:41.052Z,98.68
2023-01-29T00:43:41.042Z,98.79
2023-01-29T00:44:41.029Z,98.79
2023-01-29T00:45:41.028Z,98.79
2023-01-29T00:46:41.227Z,98.89
2023-01-29T00:47:41.027Z,98.89
2023-01-29T00:48:40.974Z,98.89
2023-01-29T00:49:40.972Z,98.99
2023-01-29T00:50:40.951Z,98.99
2023-01-29T00:51:41.131Z,98.95
2023-01-29T00:52:40.932Z,98.99
2023-01-29T00:53:40.917Z,98.99
2023-01-29T00:54:40.906Z,98.89
2023-01-29T00:55:40.888Z,98.89
2023-01-29T00:56:41.064Z,98.79
2023-01-29T00:57:40.876Z,98.79
2023-01-29T00:58:40.856Z,98.68
2023-01-29T00:59:40.854Z,98.68
2023-01-29T01:00:40.847Z,98.57
2023-01-29T01:01:41.004Z,98.57
2023-01-29T01:02:40.822Z,98.57
2023-01-29T01:03:40.975Z,98.57
2023-01-29T01:04:40.789Z,98.57
2023-01-29T01:05:40.774Z,98.68
2023-01-29T01:06:40.767Z,98.68
2023-01-29T01:07:41.076Z,98.79
2023-01-29T01:08:40.773Z,98.89
2023-01-29T01:09:40.732Z,98.89
2023-01-29T01:10:40.709Z,98.99
2023-01-29T01:11:40.703Z,98.89
2023-01-29T01:12:40.864Z,98.95
2023-01-29T01:13:40.885Z,98.95
2023-01-29T01:14:40.651Z,98.85
2023-01-29T01:15:40.656Z,98.85
2023-01-29T01:16:40.657Z,98.74
2023-01-29T01:17:40.625Z,98.68
2023-01-29T01:18:40.791Z,98.68
2023-01-29T01:19:40.813Z,98.57
2023-01-29T01:20:40.610Z,98.57
2023-01-29T01:21:40.580Z,98.57
2023-01-29T01:22:40.569Z,98.57
2023-01-29T01:23:40.560Z,98.57
2023-01-29T01:24:40.721Z,98.47
2023-01-29T01:25:40.528Z,98.47
2023-01-29T01:26:40.525Z,98.47
2023-01-29T01:27:40.518Z,98.47
2023-01-29T01:28:40.619Z,98.47
2023-01-29T01:29:40.482Z,98.57
2023-01-29T01:30:40.508Z,98.47
2023-01-29T01:31:40.506Z,98.57
2023-01-29T01:32:40.438Z,98.68
2023-01-29T01:33:40.631Z,98.68
2023-01-29T01:34:40.422Z,98.79
2023-01-29T01:35:40.428Z,98.79
2023-01-29T01:36:40.398Z,98.79
2023-01-29T01:37:40.386Z,98.79
2023-01-29T01:38:40.546Z,98.68
2023-01-29T01:39:40.367Z,98.68
2023-01-29T01:40:40.354Z,98.57
2023-01-29T01:41:40.651Z,98.57
2023-01-29T01:42:40.339Z,98.57
2023-01-29T01:43:40.510Z,98.57
2023-01-29T01:44:40.293Z,98.57
2023-01-29T01:45:40.319Z,98.61
2023-01-29T01:46:40.472Z,98.51
2023-01-29T01:47:40.266Z,98.51
2023-01-29T01:48:40.281Z,98.51
2023-01-29T01:49:40.232Z,98.51
2023-01-29T01:50:40.255Z,98.51
2023-01-29T01:51:40.381Z,98.51
2023-01-29T01:52:40.200Z,98.51
2023-01-29T01:53:40.184Z,98.61
2023-01-29T01:54:40.170Z,98.61
2023-01-29T01:55:40.168Z,98.61
2023-01-29T01:56:40.334Z,98.72
2023-01-29T01:57:40.143Z,98.72
2023-01-29T01:58:40.300Z,98.83
2023-01-29T01:59:40.125Z,98.83
2023-01-29T02:00:40.160Z,98.83
2023-01-29T02:01:40.089Z,98.93
2023-01-29T02:02:40.249Z,98.93
2023-01-29T02:03:40.089Z,98.93
2023-01-29T02:04:40.086Z,99.04
2023-01-29T02:05:40.044Z,99.15
2023-01-29T02:06:40.019Z,99.10
2023-01-29T02:07:40.100Z,99.10
2023-01-29T02:08:39.996Z,99.10
2023-01-29T02:09:40.004Z,99.15
2023-01-29T02:10:39.976Z,99.10
2023-01-29T02:11:39.971Z,99.10
2023-01-29T02:12:40.126Z,99.10
2023-01-29T02:13:40.175Z,99.10
2023-01-29T02:14:39.922Z,99.10
2023-01-29T02:15:39.915Z,99.10
2023-01-29T02:16:40.075Z,99.10
2023-01-29T02:17:39.929Z,99.10
2023-01-29T02:18:39.883Z,98.99
2023-01-29T02:19:40.057Z,98.99
2023-01-29T02:20:39.854Z,98.99
2023-01-29T02:21:40.022Z,98.99
2023-01-29T02:22:39.822Z,98.99
2023-01-29T02:23:39.846Z,98.89
2023-01-29T02:24:39.824Z,98.93
2023-01-29T02:25:40.035Z,98.93
2023-01-29T02:26:39.950Z,98.93
2023-01-29T02:27:39.777Z,98.93
2023-01-29T02:28:39.750Z,98.83
2023-01-29T02:29:39.758Z,98.93
2023-01-29T02:30:39.747Z,98.93
2023-01-29T02:31:39.924Z,99.04
2023-01-29T02:32:39.702Z,99.04
2023-01-29T02:33:39.705Z,99.04
2023-01-29T02:34:39.678Z,99.04
2023-01-29T02:35:39.695Z,99.04
2023-01-29T02:36:39.657Z,99.04
2023-01-29T02:37:39.660Z,99.04
2023-01-29T02:38:39.632Z,99.10
2023-01-29T02:39:39.628Z,98.99
2023-01-29T02:40:39.617Z,99.10
2023-01-29T02:41:39.606Z,99.04
2023-01-29T02:42:39.598Z,99.15
2023-01-29T02:43:39.755Z,99.15
2023-01-29T02:44:39.558Z,99.15
2023-01-29T02:45:39.578Z,99.04
2023-01-29T02:46:39.551Z,99.15
2023-01-29T02:47:39.525Z,99.15
2023-01-29T02:48:39.685Z,99.15
2023-01-29T02:49:39.674Z,99.21
2023-01-29T02:50:39.484Z,99.31
2023-01-29T02:51:39.483Z,99.31
2023-01-29T02:52:39.473Z,99.41
2023-01-29T02:53:39.452Z,99.41
2023-01-29T02:54:39.693Z,99.41
2023-01-29T02:55:39.434Z,99.41
2023-01-29T02:56:39.414Z,99.52
2023-01-29T02:57:39.404Z,99.52
2023-01-29T02:58:39.382Z,99.52
2023-01-29T02:59:39.393Z,99.52
2023-01-29T03:00:39.550Z,99.52
2023-01-29T03:01:39.360Z,99.52
2023-01-29T03:02:39.431Z,99.52
2023-01-29T03:03:39.334Z,99.52
2023-01-29T03:04:39.479Z,99.52
2023-01-29T03:05:39.299Z,99.52
2023-01-29T03:06:39.299Z,99.48
2023-01-29T03:07:39.278Z,99.48
2023-01-29T03:08:39.268Z,99.58
2023-01-29T03:09:39.433Z,99.48
2023-01-29T03:10:39.241Z,99.48
2023-01-29T03:11:39.229Z,99.48
2023-01-29T03:12:39.216Z,99.48
2023-01-29T03:13:39.209Z,99.37
2023-01-29T03:14:39.365Z,99.37
2023-01-29T03:15:39.238Z,99.22
2023-01-29T03:16:39.228Z,99.22
2023-01-29T03:17:39.163Z,99.11
2023-01-29T03:18:39.137Z,99.11
2023-01-29T03:19:39.136Z,99.01
2023-01-29T03:20:39.307Z,98.91
2023-01-29T03:21:39.105Z,98.91
2023-01-29T03:22:39.265Z,98.69
2023-01-29T03:23:39.104Z,98.69
2023-01-29T03:24:39.074Z,98.69
2023-01-29T03:25:39.070Z,98.59
2023-01-29T03:26:39.066Z,98.49
2023-01-29T03:27:39.044Z,98.27
2023-01-29T03:28:39.031Z,98.27
2023-01-29T03:29:39.022Z,98.27
2023-01-29T03:30:39.013Z,98.17
2023-01-29T03:31:39.043Z,98.07
2023-01-29T03:32:38.962Z,98.07
2023-01-29T03:33:39.176Z,98.07
2023-01-29T03:34:38.941Z,97.96
2023-01-29T03:35:38.938Z,97.96
2023-01-29T03:36:38.930Z,97.91
2023-01-29T03:37:39.092Z,97.85
2023-01-29T03:38:38.919Z,97.71
2023-01-29T03:39:38.890Z,97.60
2023-01-29T03:40:38.879Z,97.60
2023-01-29T03:41:38.860Z,97.49
2023-01-29T03:42:39.039Z,97.39
2023-01-29T03:43:38.839Z,97.39
2023-01-29T03:44:38.819Z,97.28
2023-01-29T03:45:38.858Z,97.28
2023-01-29T03:46:38.797Z,97.17
2023-01-29T03:47:38.787Z,97.07
2023-01-29T03:48:38.956Z,97.07
2023-01-29T03:49:38.768Z,96.97
2023-01-29T03:50:38.935Z,96.86
2023-01-29T03:51:38.750Z,96.86
2023-01-29T03:52:38.717Z,96.86
2023-01-29T03:53:38.893Z,96.86
2023-01-29T03:54:38.701Z,96.75
2023-01-29T03:55:38.695Z,96.75
2023-01-29T03:56:38.700Z,96.75
2023-01-29T03:57:38.666Z,96.65
2023-01-29T03:58:38.828Z,96.65
2023-01-29T03:59:38.647Z,96.65
2023-01-29T04:00:38.642Z,96.55
2023-01-29T04:01:38.904Z,96.55
2023-01-29T04:02:38.593Z,96.55
2023-01-29T04:03:38.624Z,96.44
2023-01-29T04:04:38.585Z,96.44
2023-01-29T04:05:38.563Z,96.44
2023-01-29T04:06:38.566Z,96.33
2023-01-29T04:07:38.565Z,96.33
2023-01-29T04:08:38.533Z,96.33
2023-01-29T04:09:38.539Z,96.33
2023-01-29T04:10:38.515Z,96.33
2023-01-29T04:11:38.692Z,96.23
2023-01-29T04:12:38.512Z,96.23
2023-01-29T04:13:38.481Z,96.33
2023-01-29T04:14:38.449Z,96.27
2023-01-29T04:15:38.451Z,96.33
2023-01-29T04:16:38.518Z,96.37
2023-01-29T04:17:38.658Z,96.37
2023-01-29T04:18:38.408Z,96.27
2023-01-29T04:19:38.418Z,96.27
2023-01-29T04:20:38.383Z,96.37
2023-01-29T04:21:38.388Z,96.37
2023-01-29T04:22:38.379Z,96.48
2023-01-29T04:23:38.371Z,96.48
2023-01-29T04:24:38.335Z,96.59
2023-01-29T04:25:38.326Z,96.69
2023-01-29T04:26:38.342Z,96.69
2023-01-29T04:27:38.315Z,96.69
2023-01-29T04:28:38.513Z,96.80
2023-01-29T04:29:38.288Z,96.91
2023-01-29T04:30:38.289Z,96.91
2023-01-29T04:31:38.361Z,96.91
2023-01-29T04:32:38.434Z,96.91
2023-01-29T04:33:38.503Z,96.91
2023-01-29T04:34:38.216Z,96.91
2023-01-29T04:35:38.201Z,96.91
2023-01-29T04:36:38.194Z,96.91
2023-01-29T04:37:38.186Z,96.91
2023-01-29T04:38:38.441Z,96.91
2023-01-29T04:39:38.379Z,97.01
2023-01-29T04:40:38.143Z,96.91
2023-01-29T04:41:38.161Z,96.91
2023-01-29T04:42:38.102Z,96.91
2023-01-29T04:43:38.110Z,97.01
2023-01-29T04:44:38.262Z,97.11
2023-01-29T04:45:38.070Z,97.11
2023-01-29T04:46:38.059Z,97.22
2023-01-29T04:47:38.100Z,97.22
2023-01-29T04:48:38.053Z,97.33
2023-01-29T04:49:38.298Z,97.49
2023-01-29T04:50:38.208Z,97.60
2023-01-29T04:51:38.006Z,97.71
2023-01-29T04:52:37.987Z,97.71
2023-01-29T04:53:37.978Z,97.81
2023-01-29T04:54:37.969Z,97.81
2023-01-29T04:55:38.128Z,97.81
2023-01-29T04:56:37.958Z,97.81
2023-01-29T04:57:37.959Z,97.91
2023-01-29T04:58:37.938Z,97.87
2023-01-29T04:59:37.907Z,97.76
2023-01-29T05:00:38.065Z,97.76
2023-01-29T05:01:38.108Z,97.76
2023-01-29T05:02:37.890Z,97.76
2023-01-29T05:03:37.865Z,97.76
2023-01-29T05:04:37.853Z,97.76
2023-01-29T05:05:38.014Z,97.76
2023-01-29T05:06:37.994Z,97.76
2023-01-29T05:07:37.822Z,97.76
2023-01-29T05:08:37.800Z,97.76
2023-01-29T05:09:37.814Z,97.82
2023-01-29T05:10:37.785Z,97.82
2023-01-29T05:11:37.941Z,97.72
2023-01-29T05:12:37.756Z,97.72
2023-01-29T05:13:39.515Z,97.51
2023-01-29T05:14:37.731Z,97.51
2023-01-29T05:15:37.754Z,97.30
2023-01-29T05:16:37.691Z,97.19
2023-01-29T05:17:37.871Z,97.05
2023-01-29T05:18:37.850Z,96.83
2023-01-29T05:19:37.841Z,96.73
2023-01-29T05:20:37.662Z,96.62
2023-01-29T05:21:39.665Z,96.41
2023-01-29T05:22:37.630Z,96.31
2023-01-29T05:23:37.611Z,96.31
2023-01-29T05:24:37.818Z,96.20
2023-01-29T05:25:37.579Z,96.10
2023-01-29T05:26:37.579Z,95.99
2023-01-29T05:27:37.574Z,95.89
2023-01-29T05:28:37.762Z,95.78
2023-01-29T05:29:37.558Z,95.68
2023-01-29T05:30:37.578Z,95.53
2023-01-29T05:31:37.607Z,95.42
2023-01-29T05:32:37.499Z,95.42
2023-01-29T05:33:37.667Z,95.32
2023-01-29T05:34:37.486Z,95.32
2023-01-29T05:35:37.467Z,95.10
2023-01-29T05:36:37.639Z,95.10
2023-01-29T05:37:37.455Z,95.00
2023-01-29T05:38:37.436Z,94.90
2023-01-29T05:39:37.416Z,94.90
2023-01-29T05:40:37.401Z,94.90
2023-01-29T05:41:37.744Z,94.90
2023-01-29T05:42:37.403Z,94.90
2023-01-29T05:43:37.394Z,94.90
2023-01-29T05:44:37.557Z,94.79
2023-01-29T05:45:37.354Z,94.79
2023-01-29T05:46:37.372Z,94.79
2023-01-29T05:47:37.492Z,94.79
2023-01-29T05:48:37.341Z,94.79
2023-01-29T05:49:38.741Z,94.69
2023-01-29T05:50:37.316Z,94.69
2023-01-29T05:51:37.291Z,94.58
2023-01-29T05:52:37.457Z,94.58
2023-01-29T05:53:37.252Z,94.58
2023-01-29T05:54:37.232Z,94.69
2023-01-29T05:55:37.221Z,94.69
2023-01-29T05:56:37.380Z,94.58
2023-01-29T05:57:37.221Z,94.69
2023-01-29T05:58:37.183Z,94.69
2023-01-29T05:59:37.178Z,94.69
2023-01-29T06:00:37.151Z,94.79
2023-01-29T06:01:37.391Z,94.79
2023-01-29T06:02:37.162Z,94.90
2023-01-29T06:03:37.127Z,94.90
2023-01-29T06:04:37.108Z,95.00
2023-01-29T06:05:37.109Z,95.00
2023-01-29T06:06:37.257Z,95.06
2023-01-29T06:07:37.107Z,95.17
2023-01-29T06:08:37.057Z,95.17
2023-01-29T06:09:37.055Z,95.21
2023-01-29T06:10:37.065Z,95.28
2023-01-29T06:11:37.505Z,95.28
2023-01-29T06:12:37.033Z,95.28
2023-01-29T06:13:37.006Z,95.28
2023-01-29T06:14:36.987Z,95.28
2023-01-29T06:15:36.978Z,95.38
2023-01-29T06:16:36.991Z,95.38
2023-01-29T06:17:36.954Z,95.38
2023-01-29T06:18:36.958Z,95.48
2023-01-29T06:19:36.952Z,95.59
2023-01-29T06:20:36.933Z,95.48
2023-01-29T06:21:36.933Z,95.48
2023-01-29T06:22:36.893Z,95.59
2023-01-29T06:23:36.883Z,95.48
2023-01-29T06:24:36.875Z,95.48
2023-01-29T06:25:36.873Z,95.38
2023-01-29T06:26:36.864Z,95.28
2023-01-29T06:27:36.830Z,95.28
2023-01-29T06:28:36.824Z,95.28
2023-01-29T06:29:36.824Z,95.28
2023-01-29T06:30:36.822Z,95.28
2023-01-29T06:31:39.302Z,95.28
2023-01-29T06:32:37.024Z,95.38
2023-01-29T06:33:36.766Z,95.28
2023-01-29T06:34:36.747Z,95.28
2023-01-29T06:35:36.734Z,95.28
2023-01-29T06:36:36.906Z,95.17
2023-01-29T06:37:36.735Z,95.17
2023-01-29T06:38:36.702Z,95.06
2023-01-29T06:39:36.677Z,95.06
2023-01-29T06:40:36.668Z,95.06
2023-01-29T06:41:36.841Z,94.96
2023-01-29T06:42:36.866Z,94.81
2023-01-29T06:43:36.651Z,94.85
2023-01-29T06:44:36.624Z,94.81
2023-01-29T06:45:36.625Z,94.60
2023-01-29T06:46:36.606Z,94.49
2023-01-29T06:47:36.617Z,94.49
2023-01-29T06:48:36.589Z,94.49
2023-01-29T06:49:36.579Z,94.49
2023-01-29T06:50:36.545Z,94.49
2023-01-29T06:51:36.544Z,94.60
2023-01-29T06:52:36.525Z,94.71
2023-01-29T06:53:36.520Z,94.71
2023-01-29T06:54:36.686Z,94.71
2023-01-29T06:55:36.494Z,94.71
2023-01-29T06:56:36.485Z,94.71
2023-01-29T06:57:36.474Z,94.71
2023-01-29T06:58:36.456Z,94.60
2023-01-29T06:59:36.633Z,94.71
2023-01-29T07:00:36.439Z,94.71
2023-01-29T07:01:36.867Z,94.71
2023-01-29T07:02:36.402Z,94.71
2023-01-29T07:03:36.381Z,94.71
2023-01-29T07:04:36.382Z,94.71
2023-01-29T07:05:36.396Z,94.81
2023-01-29T07:06:36.361Z,94.81
2023-01-29T07:07:36.352Z,94.71
2023-01-29T07:08:36.351Z,94.71
2023-01-29T07:09:36.333Z,94.60
2023-01-29T07:10:36.313Z,94.49
2023-01-29T07:11:36.477Z,94.49
2023-01-29T07:12:36.459Z,94.39
2023-01-29T07:13:36.271Z,94.29
2023-01-29T07:14:36.288Z,94.18
2023-01-29T07:15:37.333Z,94.29
2023-01-29T07:16:36.290Z,94.24
2023-01-29T07:17:36.232Z,94.24
2023-01-29T07:18:36.214Z,94.14
2023-01-29T07:19:36.198Z,94.14
2023-01-29T07:20:36.186Z,94.04
2023-01-29T07:21:36.176Z,94.14
2023-01-29T07:22:36.343Z,94.14
2023-01-29T07:23:36.166Z,94.14
2023-01-29T07:24:36.134Z,94.14
2023-01-29T07:25:36.114Z,94.04
2023-01-29T07:26:36.123Z,94.04
2023-01-29T07:27:36.113Z,94.04
2023-01-29T07:28:36.104Z,94.04
2023-01-29T07:29:36.081Z,93.82
2023-01-29T07:30:36.082Z,93.82
2023-01-29T07:31:36.113Z,93.82
2023-01-29T07:32:36.060Z,93.82
2023-01-29T07:33:36.026Z,93.82
2023-01-29T07:34:36.018Z,93.82
2023-01-29T07:35:36.002Z,93.72
2023-01-29T07:36:35.992Z,93.82
2023-01-29T07:37:35.998Z,93.82
2023-01-29T07:38:35.968Z,93.82
2023-01-29T07:39:35.953Z,93.72
2023-01-29T07:40:35.963Z,93.82
2023-01-29T07:41:35.945Z,93.82
2023-01-29T07:42:35.919Z,93.82
2023-01-29T07:43:35.933Z,93.68
2023-01-29T07:44:35.890Z,93.47
2023-01-29T07:45:35.935Z,93.36
2023-01-29T07:46:36.058Z,93.47
2023-01-29T07:47:35.847Z,93.57
2023-01-29T07:48:36.027Z,93.68
2023-01-29T07:49:35.833Z,93.57
2023-01-29T07:50:35.823Z,93.36
2023-01-29T07:51:36.004Z,93.26
2023-01-29T07:52:35.797Z,93.15
2023-01-29T07:53:35.825Z,93.15
2023-01-29T07:54:35.764Z,93.05
2023-01-29T07:55:35.767Z,93.15
2023-01-29T07:56:35.747Z,93.26
2023-01-29T07:57:35.766Z,93.26
2023-01-29T07:58:36.812Z,93.36
2023-01-29T07:59:35.705Z,93.36
2023-01-29T08:00:35.693Z,93.26
2023-01-29T08:01:35.684Z,93.26
2023-01-29T08:02:35.752Z,93.36
2023-01-29T08:03:35.864Z,93.47
2023-01-29T08:04:35.661Z,93.47
2023-01-29T08:05:35.637Z,93.47
2023-01-29T08:06:35.627Z,93.47
2023-01-29T08:07:35.612Z,93.47
2023-01-29T08:08:35.798Z,93.47
2023-01-29T08:09:35.607Z,93.57
2023-01-29T08:10:35.641Z,93.68
2023-01-29T08:11:35.564Z,93.68
2023-01-29T08:12:35.550Z,93.78
2023-01-29T08:13:35.540Z,93.78
2023-01-29T08:14:35.711Z,93.78
2023-01-29T08:16:36.545Z,93.99
2023-01-29T08:17:36.042Z,93.99
2023-01-29T08:18:35.480Z,93.88
2023-01-29T08:19:35.459Z,93.88
2023-01-29T08:20:35.628Z,93.84
2023-01-29T08:21:35.445Z,93.74
2023-01-29T08:22:35.426Z,93.84
2023-01-29T08:23:35.447Z,93.84
2023-01-29T08:24:47.747Z,93.84
2023-01-29T08:25:36.567Z,93.74
2023-01-29T08:26:35.557Z,93.74
2023-01-29T08:27:35.576Z,93.63
2023-01-29T08:28:35.347Z,93.63
2023-01-29T08:29:35.348Z,93.53
2023-01-29T08:30:35.387Z,93.53
2023-01-29T08:31:35.367Z,93.53
2023-01-29T08:32:35.494Z,93.53
2023-01-29T08:33:39.446Z,93.63
2023-01-29T08:34:35.300Z,93.84
2023-01-29T08:35:35.275Z,93.84
2023-01-29T08:36:35.256Z,93.95
2023-01-29T08:37:35.243Z,94.06
2023-01-29T08:38:35.425Z,93.84
2023-01-29T08:39:35.227Z,93.84
2023-01-29T08:40:35.230Z,93.74
2023-01-29T08:41:35.196Z,93.74
2023-01-29T08:42:35.202Z,93.53
2023-01-29T08:43:35.171Z,93.32
2023-01-29T08:44:35.161Z,93.01
2023-01-29T08:45:35.215Z,92.96
2023-01-29T08:46:35.123Z,92.86
2023-01-29T08:47:35.311Z,92.96
2023-01-29T08:48:35.134Z,92.96
2023-01-29T08:49:35.101Z,92.76
2023-01-29T08:50:35.115Z,92.76
2023-01-29T08:51:35.075Z,92.76
2023-01-29T08:52:35.059Z,92.76
2023-01-29T08:53:35.219Z,92.54
2023-01-29T08:54:35.039Z,92.44
2023-01-29T08:55:35.058Z,92.44
2023-01-29T08:56:35.017Z,92.54
2023-01-29T08:57:35.033Z,92.54
2023-01-29T08:58:35.157Z,92.44
2023-01-29T08:59:35.010Z,92.54
2023-01-29T09:00:34.979Z,92.54
2023-01-29T09:01:35.008Z,92.44
2023-01-29T09:02:34.983Z,92.54
2023-01-29T09:03:34.954Z,92.76
2023-01-29T09:04:34.976Z,92.54
2023-01-29T09:05:34.907Z,92.54
2023-01-29T09:06:34.897Z,92.61
2023-01-29T09:07:34.873Z,92.40
2023-01-29T09:08:34.878Z,92.19
2023-01-29T09:09:34.854Z,91.98
2023-01-29T09:10:34.839Z,91.98
2023-01-29T09:11:34.837Z,91.87
2023-01-29T09:12:34.804Z,92.19
2023-01-29T09:13:35.003Z,92.29
2023-01-29T09:14:34.782Z,92.29
2023-01-29T09:15:34.764Z,91.98
2023-01-29T09:16:34.782Z,91.77
2023-01-29T09:17:34.757Z,91.56
2023-01-29T09:18:34.750Z,91.46
2023-01-29T09:19:34.741Z,91.46
2023-01-29T09:20:34.710Z,91.35
2023-01-29T09:21:34.731Z,91.14
2023-01-29T09:22:34.690Z,90.83
2023-01-29T09:23:34.699Z,90.83
2023-01-29T09:24:34.660Z,90.83
2023-01-29T09:25:34.650Z,90.83
2023-01-29T09:26:34.686Z,90.93
2023-01-29T09:27:34.629Z,90.89
2023-01-29T09:28:34.649Z,90.99
2023-01-29T09:29:35.942Z,90.99
2023-01-29T09:30:34.645Z,90.68
2023-01-29T09:31:34.672Z,90.58
2023-01-29T09:32:53.586Z,90.58
2023-01-29T09:33:35.566Z,90.58
2023-01-29T09:34:34.535Z,90.78
2023-01-29T09:35:34.536Z,90.89
2023-01-29T09:36:34.557Z,90.68
2023-01-29T09:37:34.497Z,90.58
2023-01-29T09:38:34.731Z,90.58
2023-01-29T09:39:34.476Z,90.26
2023-01-29T09:40:34.505Z,90.16
2023-01-29T09:41:34.449Z,90.16
2023-01-29T09:42:36.044Z,90.16
2023-01-29T09:43:34.448Z,90.11
2023-01-29T09:44:34.448Z,90.11
2023-01-29T09:45:34.426Z,90.11
2023-01-29T09:46:34.398Z,89.90
2023-01-29T09:47:34.382Z,90.11
2023-01-29T09:48:34.362Z,90.11
2023-01-29T09:49:34.357Z,89.90
2023-01-29T09:50:34.334Z,89.70
2023-01-29T09:51:34.409Z,89.70
2023-01-29T09:52:34.323Z,89.90
2023-01-29T09:53:34.302Z,89.90
2023-01-29T09:54:34.291Z,90.01
2023-01-29T09:55:34.273Z,90.22
2023-01-29T09:56:34.281Z,90.33
2023-01-29T09:57:34.273Z,90.33
2023-01-29T09:58:34.257Z,90.01
2023-01-29T09:59:34.240Z,89.70
2023-01-29T10:00:34.234Z,89.48
2023-01-29T10:01:34.280Z,89.59
2023-01-29T10:02:34.202Z,89.48
2023-01-29T10:03:34.199Z,89.70
2023-01-29T10:04:34.214Z,89.70
2023-01-29T10:05:34.148Z,89.59
2023-01-29T10:06:34.147Z,89.48
2023-01-29T10:07:34.138Z,89.48
2023-01-29T10:08:34.137Z,89.48
2023-01-29T10:09:34.152Z,89.48
2023-01-29T10:10:34.095Z,89.38
2023-01-29T10:11:34.077Z,89.28
2023-01-29T10:12:34.066Z,89.48
2023-01-29T10:13:34.059Z,89.80
2023-01-29T10:14:34.223Z,89.59
2023-01-29T10:15:34.227Z,89.48
2023-01-29T10:16:34.032Z,89.59
2023-01-29T10:17:34.009Z,89.28
2023-01-29T10:18:34.004Z,89.38
2023-01-29T10:19:33.983Z,89.28
2023-01-29T10:20:33.989Z,89.28
2023-01-29T10:21:34.137Z,89.38
2023-01-29T10:22:33.945Z,89.59
2023-01-29T10:23:34.699Z,89.38
2023-01-29T10:24:33.924Z,89.28
2023-01-29T10:25:33.901Z,89.17
2023-01-29T10:26:34.124Z,89.17
2023-01-29T10:27:33.945Z,89.17
2023-01-29T10:28:34.013Z,89.17
2023-01-29T10:29:33.861Z,89.17
2023-01-29T10:30:33.852Z,89.07
2023-01-29T10:31:34.180Z,88.86
2023-01-29T10:32:33.820Z,88.92
2023-01-29T10:33:49.672Z,89.13
2023-01-29T10:34:34.823Z,88.82
2023-01-29T10:35:33.783Z,88.82
2023-01-29T10:36:33.778Z,89.03
2023-01-29T10:37:33.778Z,88.61
2023-01-29T10:38:33.759Z,88.50
2023-01-29T10:39:33.751Z,88.09
2023-01-29T10:40:33.728Z,88.19
2023-01-29T10:41:33.707Z,88.61
2023-01-29T10:42:33.904Z,88.61
2023-01-29T10:43:33.695Z,88.61
2023-01-29T10:44:33.678Z,88.61
2023-01-29T10:45:33.658Z,88.40
2023-01-29T10:46:33.647Z,88.40
2023-01-29T10:47:33.670Z,88.29
2023-01-29T10:48:33.646Z,88.19
2023-01-29T10:49:33.627Z,87.98
2023-01-29T10:50:33.605Z,87.66
2023-01-29T10:51:33.592Z,87.66
2023-01-29T10:52:33.588Z,87.88
2023-01-29T10:53:33.737Z,87.94
2023-01-29T10:54:33.749Z,87.73
2023-01-29T10:55:33.534Z,87.63
2023-01-29T10:56:33.708Z,87.52
2023-01-29T10:57:33.503Z,87.21
2023-01-29T10:58:33.505Z,87.31
2023-01-29T10:59:33.495Z,87.42
2023-01-29T11:00:33.489Z,87.52
2023-01-29T11:01:33.551Z,87.52
2023-01-29T11:02:33.480Z,87.21
2023-01-29T11:03:33.489Z,87.00
2023-01-29T11:04:33.439Z,86.90
2023-01-29T11:05:33.560Z,87.00
2023-01-29T11:06:33.402Z,86.58
2023-01-29T11:07:33.480Z,86.47
2023-01-29T11:08:33.460Z,86.58
2023-01-29T11:09:33.436Z,86.58
2023-01-29T11:10:33.735Z,86.54
2023-01-29T11:11:33.399Z,86.65
2023-01-29T11:12:33.389Z,86.85
2023-01-29T11:13:33.318Z,86.44
2023-01-29T11:14:33.330Z,86.75
2023-01-29T11:15:33.290Z,86.54
2023-01-29T11:16:33.316Z,86.54
2023-01-29T11:17:33.437Z,86.65
2023-01-29T11:18:33.257Z,86.44
2023-01-29T11:19:33.238Z,85.91
2023-01-29T11:20:33.230Z,86.02
2023-01-29T11:21:33.227Z,86.44
2023-01-29T11:22:33.227Z,86.13
2023-01-29T11:23:33.198Z,85.91
2023-01-29T11:24:33.185Z,85.81
2023-01-29T11:25:33.166Z,85.81
2023-01-29T11:26:33.203Z,85.81
2023-01-29T11:27:33.155Z,85.60
2023-01-29T11:28:33.141Z,85.60
2023-01-29T11:29:33.120Z,85.81
2023-01-29T11:30:33.313Z,85.91
2023-01-29T11:31:33.192Z,85.91
2023-01-29T11:32:33.094Z,85.71
2023-01-29T11:33:33.082Z,85.67
2023-01-29T11:34:33.065Z,85.46
2023-01-29T11:35:33.043Z,85.35
2023-01-29T11:36:33.229Z,85.25
2023-01-29T11:37:33.023Z,85.67
2023-01-29T11:38:33.013Z,85.35
2023-01-29T11:39:33.001Z,85.35
2023-01-29T11:40:33.166Z,85.25
2023-01-29T11:41:32.964Z,85.25
2023-01-29T11:42:32.972Z,85.25
2023-01-29T11:43:32.952Z,85.14
2023-01-29T11:44:32.944Z,85.04
2023-01-29T11:45:32.933Z,84.83
2023-01-29T11:46:32.953Z,84.83
2023-01-29T11:47:32.908Z,84.83
2023-01-29T11:48:32.918Z,85.04
2023-01-29T11:49:32.872Z,85.14
2023-01-29T11:50:32.871Z,85.14
2023-01-29T11:51:33.021Z,85.04
2023-01-29T11:52:32.838Z,85.04
2023-01-29T11:53:32.857Z,85.04
2023-01-29T11:54:32.812Z,85.14
2023-01-29T11:55:48.143Z,85.04
2023-01-29T11:56:33.971Z,84.94
2023-01-29T11:57:32.962Z,84.94
2023-01-29T11:58:32.769Z,84.73
2023-01-29T11:59:32.754Z,84.94
2023-01-29T12:00:32.744Z,84.83
2023-01-29T12:01:32.717Z,84.73
2023-01-29T12:02:32.738Z,84.62
2023-01-29T12:03:32.778Z,84.83
2023-01-29T12:04:32.690Z,85.04
2023-01-29T12:05:32.698Z,84.94
2023-01-29T12:06:32.668Z,84.83
2023-01-29T12:07:32.664Z,84.83
2023-01-29T12:08:32.639Z,84.73
2023-01-29T12:09:32.654Z,84.83
2023-01-29T12:10:32.618Z,84.83
2023-01-29T12:11:32.597Z,84.79
2023-01-29T12:12:32.763Z,84.69
2023-01-29T12:13:32.763Z,84.79
2023-01-29T12:14:32.565Z,84.69
2023-01-29T12:15:32.550Z,84.48
2023-01-29T12:16:32.571Z,84.58
2023-01-29T12:17:32.531Z,84.58
2023-01-29T12:18:32.951Z,84.58
2023-01-29T12:19:32.690Z,84.69
2023-01-29T12:20:32.674Z,84.48
2023-01-29T12:21:32.476Z,84.48
2023-01-29T12:22:32.460Z,84.27
2023-01-29T12:23:32.452Z,84.48
2023-01-29T12:24:32.660Z,84.79
2023-01-29T12:25:32.437Z,84.58
2023-01-29T12:26:32.615Z,84.48
2023-01-29T12:27:32.398Z,84.38
2023-01-29T12:28:32.389Z,84.17
2023-01-29T12:29:32.383Z,84.10
2023-01-29T12:30:32.394Z,84.06
2023-01-29T12:31:32.428Z,84.20
2023-01-29T12:32:32.339Z,84.41
2023-01-29T12:33:32.343Z,84.41
2023-01-29T12:34:32.309Z,84.52
2023-01-29T12:35:32.306Z,84.31
2023-01-29T12:36:32.312Z,84.31
2023-01-29T12:37:32.283Z,84.38
2023-01-29T12:38:32.282Z,84.48
2023-01-29T12:39:32.245Z,84.48
2023-01-29T12:40:32.248Z,84.38
2023-01-29T12:41:32.237Z,84.27
2023-01-29T12:42:32.234Z,84.17
2023-01-29T12:43:32.205Z,83.85
2023-01-29T12:44:32.254Z,84.06
2023-01-29T12:45:32.174Z,84.27
2023-01-29T12:46:32.232Z,84.38
2023-01-29T12:47:32.199Z,84.17
2023-01-29T12:48:32.143Z,84.06
2023-01-29T12:49:32.301Z,84.17
2023-01-29T12:50:32.112Z,84.17
2023-01-29T12:51:32.121Z,84.17
2023-01-29T12:52:32.095Z,83.85
2023-01-29T12:53:32.074Z,83.95